sensor_id;sensor_type;location;lat;lon;timestamp;pressure;altitude;pressure_sealevel;temperature;humidity
80116;BME280;69423;47.608;19.366;2023-09-19T00:00:17;98486.63;;;22.05;60.00
80116;BME280;69423;47.608;19.366;2023-09-19T00:00:50;98484.97;;;22.03;59.88
80116;BME280;69423;47.608;19.366;2023-09-19T00:01:22;98487.16;;;22.07;60.05
80116;BME280;69423;47.608;19.366;2023-09-19T00:01:53;98493.38;;;22.02;60.05
80116;BME280;69423;47.608;19.366;2023-09-19T00:02:24;98484.16;;;21.98;60.13
80116;BME280;69423;47.608;19.366;2023-09-19T00:02:56;98485.78;;;21.99;60.22
80116;BME280;69423;47.608;19.366;2023-09-19T00:03:29;98489.06;;;21.96;60.03
80116;BME280;69423;47.608;19.366;2023-09-19T00:04:01;98487.94;;;21.97;60.04
80116;BME280;69423;47.608;19.366;2023-09-19T00:04:33;98490.13;;;21.95;60.08
80116;BME280;69423;47.608;19.366;2023-09-19T00:05:04;98488.22;;;21.95;60.24
80116;BME280;69423;47.608;19.366;2023-09-19T00:05:37;98492.56;;;21.96;60.20
80116;BME280;69423;47.608;19.366;2023-09-19T00:06:15;98489.84;;;21.96;60.21
80116;BME280;69423;47.608;19.366;2023-09-19T00:06:46;98492.53;;;21.91;60.07
80116;BME280;69423;47.608;19.366;2023-09-19T00:07:18;98493.09;;;21.88;60.43
80116;BME280;69423;47.608;19.366;2023-09-19T00:07:50;98490.94;;;21.90;60.33
80116;BME280;69423;47.608;19.366;2023-09-19T00:08:21;98487.97;;;21.92;60.47
80116;BME280;69423;47.608;19.366;2023-09-19T00:08:55;98491.47;;;21.97;60.05
80116;BME280;69423;47.608;19.366;2023-09-19T00:09:27;98495.28;;;21.96;60.16
80116;BME280;69423;47.608;19.366;2023-09-19T00:09:58;98493.94;;;21.94;60.30
80116;BME280;69423;47.608;19.366;2023-09-19T00:10:29;98496.34;;;21.90;60.11
80116;BME280;69423;47.608;19.366;2023-09-19T00:11:02;98491.44;;;21.87;60.47
80116;BME280;69423;47.608;19.366;2023-09-19T00:11:34;98492.53;;;21.91;60.30
80116;BME280;69423;47.608;19.366;2023-09-19T00:12:06;98493.66;;;21.90;60.22
80116;BME280;69423;47.608;19.366;2023-09-19T00:12:43;98489.28;;;21.89;59.90
80116;BME280;69423;47.608;19.366;2023-09-19T00:13:14;98489.28;;;21.84;60.49
80116;BME280;69423;47.608;19.366;2023-09-19T00:13:47;98494.47;;;21.86;60.34
80116;BME280;69423;47.608;19.366;2023-09-19T00:14:20;98497.97;;;21.86;60.44
80116;BME280;69423;47.608;19.366;2023-09-19T00:14:55;98496.06;;;21.87;60.61
80116;BME280;69423;47.608;19.366;2023-09-19T00:15:27;98496.06;;;21.87;60.28
80116;BME280;69423;47.608;19.366;2023-09-19T00:16:01;98495.81;;;21.88;60.44
80116;BME280;69423;47.608;19.366;2023-09-19T00:16:38;98488.75;;;21.87;60.36
80116;BME280;69423;47.608;19.366;2023-09-19T00:17:09;98497.44;;;21.84;60.46
80116;BME280;69423;47.608;19.366;2023-09-19T00:17:40;98501.22;;;21.83;60.60
80116;BME280;69423;47.608;19.366;2023-09-19T00:18:12;98489.03;;;21.86;60.45
80116;BME280;69423;47.608;19.366;2023-09-19T00:18:43;98495.25;;;21.86;60.44
80116;BME280;69423;47.608;19.366;2023-09-19T00:19:14;98492.56;;;21.86;60.43
80116;BME280;69423;47.608;19.366;2023-09-19T00:19:47;98489.56;;;21.88;60.43
80116;BME280;69423;47.608;19.366;2023-09-19T00:20:23;98485.22;;;21.87;60.27
80116;BME280;69423;47.608;19.366;2023-09-19T00:21:01;98497.72;;;21.88;60.52
80116;BME280;69423;47.608;19.366;2023-09-19T00:21:32;98487.94;;;21.87;60.53
80116;BME280;69423;47.608;19.366;2023-09-19T00:22:03;98492.25;;;21.82;60.74
80116;BME280;69423;47.608;19.366;2023-09-19T00:22:35;98492.25;;;21.82;60.59
80116;BME280;69423;47.608;19.366;2023-09-19T00:23:07;98492.81;;;21.85;60.87
80116;BME280;69423;47.608;19.366;2023-09-19T00:23:41;98487.38;;;21.85;60.46
80116;BME280;69423;47.608;19.366;2023-09-19T00:24:12;98498.53;;;21.88;60.49
80116;BME280;69423;47.608;19.366;2023-09-19T00:24:44;98490.38;;;21.88;60.68
80116;BME280;69423;47.608;19.366;2023-09-19T00:25:16;98493.91;;;21.89;60.21
80116;BME280;69423;47.608;19.366;2023-09-19T00:25:48;98487.13;;;21.86;60.39
80116;BME280;69423;47.608;19.366;2023-09-19T00:26:19;98494.16;;;21.87;60.58
80116;BME280;69423;47.608;19.366;2023-09-19T00:26:52;98490.91;;;21.80;60.55
80116;BME280;69423;47.608;19.366;2023-09-19T00:27:23;98490.63;;;21.76;60.84
80116;BME280;69423;47.608;19.366;2023-09-19T00:27:54;98490.91;;;21.80;60.74
80116;BME280;69423;47.608;19.366;2023-09-19T00:28:27;98484.66;;;21.79;60.93
80116;BME280;69423;47.608;19.366;2023-09-19T00:28:58;98489.81;;;21.81;60.73
80116;BME280;69423;47.608;19.366;2023-09-19T00:29:35;98488.75;;;21.82;60.93
80116;BME280;69423;47.608;19.366;2023-09-19T00:30:07;98487.66;;;21.78;60.86
80116;BME280;69423;47.608;19.366;2023-09-19T00:30:42;98483.56;;;21.75;60.80
80116;BME280;69423;47.608;19.366;2023-09-19T00:31:13;98485.44;;;21.75;61.09
80116;BME280;69423;47.608;19.366;2023-09-19T00:31:45;98487.09;;;21.76;61.11
80116;BME280;69423;47.608;19.366;2023-09-19T00:32:16;98486.28;;;21.75;60.99
80116;BME280;69423;47.608;19.366;2023-09-19T00:32:48;98484.13;;;21.77;60.65
80116;BME280;69423;47.608;19.366;2023-09-19T00:33:19;98487.09;;;21.76;60.90
80116;BME280;69423;47.608;19.366;2023-09-19T00:33:50;98485.44;;;21.70;61.23
80116;BME280;69423;47.608;19.366;2023-09-19T00:34:22;98484.63;;;21.74;61.17
80116;BME280;69423;47.608;19.366;2023-09-19T00:34:53;98484.38;;;21.76;60.76
80116;BME280;69423;47.608;19.366;2023-09-19T00:35:24;98480.31;;;21.78;60.93
80116;BME280;69423;47.608;19.366;2023-09-19T00:35:57;98485.19;;;21.76;61.78
80116;BME280;69423;47.608;19.366;2023-09-19T00:36:28;98484.38;;;21.76;61.04
80116;BME280;69423;47.608;19.366;2023-09-19T00:37:00;98484.38;;;21.76;61.15
80116;BME280;69423;47.608;19.366;2023-09-19T00:37:31;98477.31;;;21.75;60.81
80116;BME280;69423;47.608;19.366;2023-09-19T00:38:02;98471.34;;;21.73;61.26
80116;BME280;69423;47.608;19.366;2023-09-19T00:38:34;98477.06;;;21.71;60.97
80116;BME280;69423;47.608;19.366;2023-09-19T00:39:06;98474.88;;;21.73;61.43
80116;BME280;69423;47.608;19.366;2023-09-19T00:39:39;98474.59;;;21.70;61.29
80116;BME280;69423;47.608;19.366;2023-09-19T00:40:11;98472.94;;;21.69;61.51
80116;BME280;69423;47.608;19.366;2023-09-19T00:40:46;98483.25;;;21.67;61.23
80116;BME280;69423;47.608;19.366;2023-09-19T00:41:17;98481.91;;;21.64;61.47
80116;BME280;69423;47.608;19.366;2023-09-19T00:41:48;98485.97;;;21.67;61.42
80116;BME280;69423;47.608;19.366;2023-09-19T00:42:20;98474.03;;;21.62;61.56
80116;BME280;69423;47.608;19.366;2023-09-19T00:42:51;98477.81;;;21.61;61.59
80116;BME280;69423;47.608;19.366;2023-09-19T00:43:23;98476.22;;;21.60;61.45
80116;BME280;69423;47.608;19.366;2023-09-19T00:43:54;98481.63;;;21.60;61.51
80116;BME280;69423;47.608;19.366;2023-09-19T00:44:25;98478.94;;;21.60;61.32
80116;BME280;69423;47.608;19.366;2023-09-19T00:44:57;98480.53;;;21.61;61.32
80116;BME280;69423;47.608;19.366;2023-09-19T00:45:29;98474.56;;;21.59;61.44
80116;BME280;69423;47.608;19.366;2023-09-19T00:46:00;98474.00;;;21.57;61.63
80116;BME280;69423;47.608;19.366;2023-09-19T00:46:33;98472.41;;;21.56;61.51
80116;BME280;69423;47.608;19.366;2023-09-19T00:47:04;98471.31;;;21.57;61.63
80116;BME280;69423;47.608;19.366;2023-09-19T00:47:37;98477.28;;;21.54;61.93
80116;BME280;69423;47.608;19.366;2023-09-19T00:48:08;98463.59;;;21.39;62.55
80116;BME280;69423;47.608;19.366;2023-09-19T00:48:41;98470.38;;;21.41;62.57
80116;BME280;69423;47.608;19.366;2023-09-19T00:49:14;98479.41;;;21.47;62.31
80116;BME280;69423;47.608;19.366;2023-09-19T00:49:46;98476.69;;;21.47;61.84
80116;BME280;69423;47.608;19.366;2023-09-19T00:50:23;98466.94;;;21.51;61.88
80116;BME280;69423;47.608;19.366;2023-09-19T00:50:57;98467.50;;;21.53;61.87
80116;BME280;69423;47.608;19.366;2023-09-19T00:51:34;98469.13;;;21.54;62.25
80116;BME280;69423;47.608;19.366;2023-09-19T00:52:06;98471.84;;;21.54;62.01
80116;BME280;69423;47.608;19.366;2023-09-19T00:52:38;98472.38;;;21.51;62.02
80116;BME280;69423;47.608;19.366;2023-09-19T00:53:14;98475.63;;;21.53;61.90
80116;BME280;69423;47.608;19.366;2023-09-19T00:53:46;98475.06;;;21.46;62.12
80116;BME280;69423;47.608;19.366;2023-09-19T00:54:18;98468.00;;;21.45;62.14
80116;BME280;69423;47.608;19.366;2023-09-19T00:54:50;98472.38;;;21.46;62.07
80116;BME280;69423;47.608;19.366;2023-09-19T00:55:21;98472.38;;;21.46;62.43
80116;BME280;69423;47.608;19.366;2023-09-19T00:55:53;98479.16;;;21.49;62.06
80116;BME280;69423;47.608;19.366;2023-09-19T00:56:26;98468.56;;;21.47;62.00
80116;BME280;69423;47.608;19.366;2023-09-19T00:56:58;98469.91;;;21.50;61.87
80116;BME280;69423;47.608;19.366;2023-09-19T00:57:29;98473.72;;;21.49;62.21
80116;BME280;69423;47.608;19.366;2023-09-19T00:58:04;98476.19;;;21.50;62.06
80116;BME280;69423;47.608;19.366;2023-09-19T00:58:38;98471.00;;;21.49;62.66
80116;BME280;69423;47.608;19.366;2023-09-19T00:59:09;98470.75;;;21.50;62.32
80116;BME280;69423;47.608;19.366;2023-09-19T00:59:41;98468.56;;;21.47;62.20
80116;BME280;69423;47.608;19.366;2023-09-19T01:00:13;98471.53;;;21.46;62.35
80116;BME280;69423;47.608;19.366;2023-09-19T01:00:48;98468.28;;;21.49;62.72
80116;BME280;69423;47.608;19.366;2023-09-19T01:01:20;98473.44;;;21.45;62.17
80116;BME280;69423;47.608;19.366;2023-09-19T01:01:53;98473.44;;;21.45;62.90
80116;BME280;69423;47.608;19.366;2023-09-19T01:02:25;98466.38;;;21.44;62.47
80116;BME280;69423;47.608;19.366;2023-09-19T01:02:59;98466.38;;;21.44;62.21
80116;BME280;69423;47.608;19.366;2023-09-19T01:03:33;98469.66;;;21.46;62.61
80116;BME280;69423;47.608;19.366;2023-09-19T01:04:04;98471.81;;;21.44;62.44
80116;BME280;69423;47.608;19.366;2023-09-19T01:04:36;98471.81;;;21.44;62.44
80116;BME280;69423;47.608;19.366;2023-09-19T01:05:07;98471.81;;;21.44;62.44
80116;BME280;69423;47.608;19.366;2023-09-19T01:05:38;98466.38;;;21.44;62.78
80116;BME280;69423;47.608;19.366;2023-09-19T01:06:09;98470.16;;;21.43;62.63
80116;BME280;69423;47.608;19.366;2023-09-19T01:06:41;98466.88;;;21.41;62.75
80116;BME280;69423;47.608;19.366;2023-09-19T01:07:12;98467.97;;;21.40;62.87
80116;BME280;69423;47.608;19.366;2023-09-19T01:07:46;98465.25;;;21.40;62.64
80116;BME280;69423;47.608;19.366;2023-09-19T01:08:19;98463.88;;;21.37;62.71
80116;BME280;69423;47.608;19.366;2023-09-19T01:08:50;98469.03;;;21.39;62.88
80116;BME280;69423;47.608;19.366;2023-09-19T01:09:21;98471.50;;;21.40;62.74
80116;BME280;69423;47.608;19.366;2023-09-19T01:09:52;98465.84;;;21.42;62.38
80116;BME280;69423;47.608;19.366;2023-09-19T01:10:24;98470.69;;;21.40;62.69
80116;BME280;69423;47.608;19.366;2023-09-19T01:11:01;98469.59;;;21.36;62.98
80116;BME280;69423;47.608;19.366;2023-09-19T01:11:43;98462.00;;;21.38;62.82
80116;BME280;69423;47.608;19.366;2023-09-19T01:12:28;98470.13;;;21.38;62.98
80116;BME280;69423;47.608;19.366;2023-09-19T01:14:10;98463.88;;;21.32;62.97
80116;BME280;69423;47.608;19.366;2023-09-19T01:15:10;98475.81;;;21.31;63.20
80116;BME280;69423;47.608;19.366;2023-09-19T01:17:14;98473.34;;;21.35;63.19
80116;BME280;69423;47.608;19.366;2023-09-19T01:18:00;98467.66;;;21.31;63.05
80116;BME280;69423;47.608;19.366;2023-09-19T01:18:55;98470.91;;;21.33;63.05
80116;BME280;69423;47.608;19.366;2023-09-19T01:20:03;98466.31;;;21.34;63.19
80116;BME280;69423;47.608;19.366;2023-09-19T01:22:00;98465.22;;;21.30;63.67
80116;BME280;69423;47.608;19.366;2023-09-19T01:24:34;98455.16;;;21.25;63.45
80116;BME280;69423;47.608;19.366;2023-09-19T01:26:04;98468.19;;;21.28;63.55
80116;BME280;69423;47.608;19.366;2023-09-19T01:27:40;98458.97;;;21.29;63.46
80116;BME280;69423;47.608;19.366;2023-09-19T01:30:13;98454.38;;;21.30;63.78
80116;BME280;69423;47.608;19.366;2023-09-19T01:30:47;98459.25;;;21.28;63.59
80116;BME280;69423;47.608;19.366;2023-09-19T01:31:19;98465.22;;;21.30;63.60
80116;BME280;69423;47.608;19.366;2023-09-19T01:31:53;98460.31;;;21.27;63.78
80116;BME280;69423;47.608;19.366;2023-09-19T01:32:25;98466.81;;;21.26;63.78
80116;BME280;69423;47.608;19.366;2023-09-19T01:32:57;98460.84;;;21.23;64.10
80116;BME280;69423;47.608;19.366;2023-09-19T01:34:02;98470.09;;;21.28;63.79
80116;BME280;69423;47.608;19.366;2023-09-19T01:34:47;98470.09;;;21.28;64.03
80116;BME280;69423;47.608;19.366;2023-09-19T01:35:19;98458.16;;;21.29;63.93
80116;BME280;69423;47.608;19.366;2023-09-19T01:35:50;98464.13;;;21.26;64.01
80116;BME280;69423;47.608;19.366;2023-09-19T01:36:21;98467.09;;;21.24;64.08
80116;BME280;69423;47.608;19.366;2023-09-19T01:36:54;98467.63;;;21.26;64.06
80116;BME280;69423;47.608;19.366;2023-09-19T01:37:25;98472.00;;;21.27;63.89
80116;BME280;69423;47.608;19.366;2023-09-19T01:37:57;98467.63;;;21.26;64.06
80116;BME280;69423;47.608;19.366;2023-09-19T01:38:30;98471.16;;;21.27;64.13
80116;BME280;69423;47.608;19.366;2023-09-19T01:39:11;98467.38;;;21.28;64.15
80116;BME280;69423;47.608;19.366;2023-09-19T01:39:43;98461.16;;;21.27;64.14
80116;BME280;69423;47.608;19.366;2023-09-19T01:40:17;98473.59;;;21.28;64.04
80116;BME280;69423;47.608;19.366;2023-09-19T01:41:11;98462.75;;;21.28;64.03
80116;BME280;69423;47.608;19.366;2023-09-19T01:41:54;98460.84;;;21.29;63.93
80116;BME280;69423;47.608;19.366;2023-09-19T01:43:35;98464.63;;;21.22;64.11
80116;BME280;69423;47.608;19.366;2023-09-19T01:44:15;98462.47;;;21.19;64.26
80116;BME280;69423;47.608;19.366;2023-09-19T01:44:59;98470.03;;;21.22;64.09
80116;BME280;69423;47.608;19.366;2023-09-19T01:46:39;98465.97;;;21.20;64.27
80116;BME280;69423;47.608;19.366;2023-09-19T01:49:37;98464.63;;;21.22;64.74
80116;BME280;69423;47.608;19.366;2023-09-19T01:50:38;98461.91;;;21.22;64.41
80116;BME280;69423;47.608;19.366;2023-09-19T01:51:19;98466.28;;;21.23;64.39
80116;BME280;69423;47.608;19.366;2023-09-19T01:52:12;98453.25;;;21.26;64.21
80116;BME280;69423;47.608;19.366;2023-09-19T01:52:59;98465.19;;;21.25;64.46
80116;BME280;69423;47.608;19.366;2023-09-19T01:54:31;98461.38;;;21.20;64.59
80116;BME280;69423;47.608;19.366;2023-09-19T01:55:09;98460.03;;;21.23;64.56
80116;BME280;69423;47.608;19.366;2023-09-19T01:55:44;98445.94;;;21.21;65.20
80116;BME280;69423;47.608;19.366;2023-09-19T01:56:32;98447.53;;;21.22;64.67
80116;BME280;69423;47.608;19.366;2023-09-19T01:57:17;98452.97;;;21.17;64.35
80116;BME280;69423;47.608;19.366;2023-09-19T01:58:01;98446.69;;;21.16;65.09
80116;BME280;69423;47.608;19.366;2023-09-19T01:58:42;98455.13;;;21.20;64.96
80116;BME280;69423;47.608;19.366;2023-09-19T01:59:24;98457.53;;;21.16;64.75
80116;BME280;69423;47.608;19.366;2023-09-19T02:00:06;98451.06;;;21.17;65.10
80116;BME280;69423;47.608;19.366;2023-09-19T02:00:37;98441.03;;;21.18;64.81
80116;BME280;69423;47.608;19.366;2023-09-19T02:01:18;98448.91;;;21.19;64.25
80116;BME280;69423;47.608;19.366;2023-09-19T02:01:52;98448.91;;;21.19;64.75
80116;BME280;69423;47.608;19.366;2023-09-19T02:02:25;98449.72;;;21.20;65.02
80116;BME280;69423;47.608;19.366;2023-09-19T02:02:58;98438.56;;;21.16;64.75
80116;BME280;69423;47.608;19.366;2023-09-19T02:03:31;98442.38;;;21.15;65.38
80116;BME280;69423;47.608;19.366;2023-09-19T02:04:03;98450.50;;;21.15;65.09
80116;BME280;69423;47.608;19.366;2023-09-19T02:04:35;98449.16;;;21.13;65.33
80116;BME280;69423;47.608;19.366;2023-09-19T02:05:06;98454.28;;;21.14;65.13
80116;BME280;69423;47.608;19.366;2023-09-19T02:05:37;98449.66;;;21.10;65.26
80116;BME280;69423;47.608;19.366;2023-09-19T02:06:14;98451.00;;;21.07;65.31
80116;BME280;69423;47.608;19.366;2023-09-19T02:06:46;98445.59;;;21.07;65.54
80116;BME280;69423;47.608;19.366;2023-09-19T02:07:20;98451.00;;;21.07;65.42
80116;BME280;69423;47.608;19.366;2023-09-19T02:07:54;98433.09;;;21.06;65.13
80116;BME280;69423;47.608;19.366;2023-09-19T02:08:26;98440.97;;;21.08;65.36
80116;BME280;69423;47.608;19.366;2023-09-19T02:08:57;98445.59;;;21.07;65.43
80116;BME280;69423;47.608;19.366;2023-09-19T02:09:30;98442.88;;;21.07;65.45
80116;BME280;69423;47.608;19.366;2023-09-19T02:10:01;98436.66;;;21.07;65.17
80116;BME280;69423;47.608;19.366;2023-09-19T02:10:35;98441.78;;;21.08;65.47
80116;BME280;69423;47.608;19.366;2023-09-19T02:11:07;98438.53;;;21.06;65.70
80116;BME280;69423;47.608;19.366;2023-09-19T02:11:38;98440.16;;;21.07;65.61
80116;BME280;69423;47.608;19.366;2023-09-19T02:12:09;98443.94;;;21.06;65.61
80116;BME280;69423;47.608;19.366;2023-09-19T02:12:40;98445.53;;;21.02;65.80
80116;BME280;69423;47.608;19.366;2023-09-19T02:13:11;98448.53;;;21.00;66.03
80116;BME280;69423;47.608;19.366;2023-09-19T02:13:43;98450.16;;;21.01;65.92
80116;BME280;69423;47.608;19.366;2023-09-19T02:14:14;98456.69;;;21.00;65.91
80116;BME280;69423;47.608;19.366;2023-09-19T02:14:45;98451.53;;;21.04;65.70
80116;BME280;69423;47.608;19.366;2023-09-19T02:15:17;98445.84;;;21.00;65.79
80116;BME280;69423;47.608;19.366;2023-09-19T02:15:48;98453.16;;;21.00;65.93
80116;BME280;69423;47.608;19.366;2023-09-19T02:16:19;98451.25;;;21.00;66.01
80116;BME280;69423;47.608;19.366;2023-09-19T02:16:51;98453.41;;;20.98;66.04
80116;BME280;69423;47.608;19.366;2023-09-19T02:17:22;98444.47;;;20.98;65.99
80116;BME280;69423;47.608;19.366;2023-09-19T02:17:56;98450.16;;;20.96;66.11
80116;BME280;69423;47.608;19.366;2023-09-19T02:18:27;98445.78;;;20.95;66.06
80116;BME280;69423;47.608;19.366;2023-09-19T02:18:59;98457.47;;;20.96;66.12
80116;BME280;69423;47.608;19.366;2023-09-19T02:19:31;98446.09;;;20.94;66.31
80116;BME280;69423;47.608;19.366;2023-09-19T02:20:04;98451.19;;;20.90;66.54
80116;BME280;69423;47.608;19.366;2023-09-19T02:20:40;98449.03;;;20.92;66.42
80116;BME280;69423;47.608;19.366;2023-09-19T02:21:11;98446.34;;;20.92;66.43
80116;BME280;69423;47.608;19.366;2023-09-19T02:21:43;98448.25;;;20.92;66.34
80116;BME280;69423;47.608;19.366;2023-09-19T02:22:14;98451.19;;;20.90;66.50
80116;BME280;69423;47.608;19.366;2023-09-19T02:22:47;98449.28;;;20.91;66.35
80116;BME280;69423;47.608;19.366;2023-09-19T02:23:20;98450.41;;;20.90;66.44
80116;BME280;69423;47.608;19.366;2023-09-19T02:23:51;98446.59;;;20.91;66.62
80116;BME280;69423;47.608;19.366;2023-09-19T02:24:22;98447.69;;;20.90;66.62
80116;BME280;69423;47.608;19.366;2023-09-19T02:24:57;98450.41;;;20.90;66.53
80116;BME280;69423;47.608;19.366;2023-09-19T02:25:31;98449.28;;;20.91;66.66
80116;BME280;69423;47.608;19.366;2023-09-19T02:26:06;98444.97;;;20.90;66.67
80116;BME280;69423;47.608;19.366;2023-09-19T02:26:37;98443.88;;;20.91;66.59
80116;BME280;69423;47.608;19.366;2023-09-19T02:27:08;98445.47;;;20.87;66.78
80116;BME280;69423;47.608;19.366;2023-09-19T02:27:39;98453.59;;;20.87;66.85
80116;BME280;69423;47.608;19.366;2023-09-19T02:28:10;98454.16;;;20.89;66.62
80116;BME280;69423;47.608;19.366;2023-09-19T02:28:42;98448.19;;;20.87;66.57
80116;BME280;69423;47.608;19.366;2023-09-19T02:29:13;98454.16;;;20.84;67.10
80116;BME280;69423;47.608;19.366;2023-09-19T02:29:45;98450.34;;;20.85;66.99
80116;BME280;69423;47.608;19.366;2023-09-19T02:30:16;98447.88;;;20.83;66.82
80116;BME280;69423;47.608;19.366;2023-09-19T02:30:49;98451.69;;;20.82;66.71
80116;BME280;69423;47.608;19.366;2023-09-19T02:31:21;98446.84;;;20.84;67.09
80116;BME280;69423;47.608;19.366;2023-09-19T02:31:52;98453.59;;;20.81;67.27
80116;BME280;69423;47.608;19.366;2023-09-19T02:32:24;98455.47;;;20.81;66.93
80116;BME280;69423;47.608;19.366;2023-09-19T02:32:55;98453.84;;;20.80;66.73
80116;BME280;69423;47.608;19.366;2023-09-19T02:33:26;98450.34;;;20.79;67.04
80116;BME280;69423;47.608;19.366;2023-09-19T02:33:57;98457.38;;;20.80;66.95
80116;BME280;69423;47.608;19.366;2023-09-19T02:34:29;98457.38;;;20.80;66.91
80116;BME280;69423;47.608;19.366;2023-09-19T02:35:00;98450.03;;;20.76;67.24
80116;BME280;69423;47.608;19.366;2023-09-19T02:35:31;98443.81;;;20.75;67.16
80116;BME280;69423;47.608;19.366;2023-09-19T02:36:07;98447.06;;;20.77;67.42
80116;BME280;69423;47.608;19.366;2023-09-19T02:36:38;98446.22;;;20.77;67.26
80116;BME280;69423;47.608;19.366;2023-09-19T02:37:09;98452.50;;;20.77;67.34
80116;BME280;69423;47.608;19.366;2023-09-19T02:37:41;98450.84;;;20.76;67.41
80116;BME280;69423;47.608;19.366;2023-09-19T02:38:12;98449.78;;;20.77;67.23
80116;BME280;69423;47.608;19.366;2023-09-19T02:38:43;98443.53;;;20.77;67.48
80116;BME280;69423;47.608;19.366;2023-09-19T02:39:14;98442.16;;;20.74;67.31
80116;BME280;69423;47.608;19.366;2023-09-19T02:39:45;98442.16;;;20.74;67.52
80116;BME280;69423;47.608;19.366;2023-09-19T02:40:16;98436.75;;;20.74;67.91
80116;BME280;69423;47.608;19.366;2023-09-19T02:40:50;98444.31;;;20.72;67.56
80116;BME280;69423;47.608;19.366;2023-09-19T02:41:21;98435.13;;;20.73;67.60
80116;BME280;69423;47.608;19.366;2023-09-19T02:41:53;98439.97;;;20.71;67.49
80116;BME280;69423;47.608;19.366;2023-09-19T02:42:24;98438.88;;;20.72;67.55
80116;BME280;69423;47.608;19.366;2023-09-19T02:42:55;98433.47;;;20.72;66.97
80116;BME280;69423;47.608;19.366;2023-09-19T02:43:27;98437.78;;;20.68;67.93
80116;BME280;69423;47.608;19.366;2023-09-19T02:43:58;98441.03;;;20.70;67.76
80116;BME280;69423;47.608;19.366;2023-09-19T02:44:30;98435.63;;;20.70;67.57
80116;BME280;69423;47.608;19.366;2023-09-19T02:45:01;98435.63;;;20.70;67.60
80116;BME280;69423;47.608;19.366;2023-09-19T02:45:36;98436.44;;;20.71;67.57
80116;BME280;69423;47.608;19.366;2023-09-19T02:46:07;98440.50;;;20.68;68.05
80116;BME280;69423;47.608;19.366;2023-09-19T02:46:38;98441.03;;;20.70;67.89
80116;BME280;69423;47.608;19.366;2023-09-19T02:47:09;98438.59;;;20.69;67.67
80116;BME280;69423;47.608;19.366;2023-09-19T02:47:40;98441.31;;;20.69;67.15
80116;BME280;69423;47.608;19.366;2023-09-19T02:48:12;98438.31;;;20.65;67.94
80116;BME280;69423;47.608;19.366;2023-09-19T02:48:43;98435.88;;;20.64;68.15
80116;BME280;69423;47.608;19.366;2023-09-19T02:49:14;98431.25;;;20.64;68.08
80116;BME280;69423;47.608;19.366;2023-09-19T02:49:45;98436.69;;;20.64;68.43
80116;BME280;69423;47.608;19.366;2023-09-19T02:50:16;98433.97;;;20.64;68.18
80116;BME280;69423;47.608;19.366;2023-09-19T02:50:51;98431.78;;;20.61;68.15
80116;BME280;69423;47.608;19.366;2023-09-19T02:51:22;98443.44;;;20.61;68.05
80116;BME280;69423;47.608;19.366;2023-09-19T02:51:53;98441.81;;;20.60;68.25
80116;BME280;69423;47.608;19.366;2023-09-19T02:52:24;98432.59;;;20.61;68.22
80116;BME280;69423;47.608;19.366;2023-09-19T02:52:55;98432.59;;;20.61;68.30
80116;BME280;69423;47.608;19.366;2023-09-19T02:53:26;98430.69;;;20.62;68.26
80116;BME280;69423;47.608;19.366;2023-09-19T02:54:00;98435.84;;;20.58;68.39
80116;BME280;69423;47.608;19.366;2023-09-19T02:54:34;98428.00;;;20.62;68.22
80116;BME280;69423;47.608;19.366;2023-09-19T02:55:05;98434.25;;;20.63;68.38
80116;BME280;69423;47.608;19.366;2023-09-19T02:55:37;98432.59;;;20.61;68.19
80116;BME280;69423;47.608;19.366;2023-09-19T02:56:09;98428.84;;;20.63;68.35
80116;BME280;69423;47.608;19.366;2023-09-19T02:56:42;98433.41;;;20.62;68.06
80116;BME280;69423;47.608;19.366;2023-09-19T02:57:13;98435.56;;;20.60;68.25
80116;BME280;69423;47.608;19.366;2023-09-19T02:57:52;98438.28;;;20.60;68.48
80116;BME280;69423;47.608;19.366;2023-09-19T02:58:25;98436.66;;;20.59;68.31
80116;BME280;69423;47.608;19.366;2023-09-19T02:58:56;98432.31;;;20.58;68.71
80116;BME280;69423;47.608;19.366;2023-09-19T02:59:28;98437.97;;;20.56;68.71
80116;BME280;69423;47.608;19.366;2023-09-19T03:00:00;98437.72;;;20.58;68.47
80116;BME280;69423;47.608;19.366;2023-09-19T03:00:31;98430.97;;;20.60;68.31
80116;BME280;69423;47.608;19.366;2023-09-19T03:01:11;98434.16;;;20.57;68.42
80116;BME280;69423;47.608;19.366;2023-09-19T03:01:49;98434.41;;;20.56;68.93
80116;BME280;69423;47.608;19.366;2023-09-19T03:02:20;98436.31;;;20.55;68.88
80116;BME280;69423;47.608;19.366;2023-09-19T03:02:54;98434.69;;;20.54;68.63
80116;BME280;69423;47.608;19.366;2023-09-19T03:03:25;98436.56;;;20.54;68.82
80116;BME280;69423;47.608;19.366;2023-09-19T03:03:59;98435.75;;;20.53;68.83
80116;BME280;69423;47.608;19.366;2023-09-19T03:04:30;98432.25;;;20.53;69.04
80116;BME280;69423;47.608;19.366;2023-09-19T03:05:01;98437.66;;;20.53;68.93
80116;BME280;69423;47.608;19.366;2023-09-19T03:05:34;98429.53;;;20.53;68.72
80116;BME280;69423;47.608;19.366;2023-09-19T03:06:06;98429.28;;;20.54;68.54
80116;BME280;69423;47.608;19.366;2023-09-19T03:06:39;98436.00;;;20.52;69.06
80116;BME280;69423;47.608;19.366;2023-09-19T03:07:11;98436.00;;;20.52;69.06
80116;BME280;69423;47.608;19.366;2023-09-19T03:07:42;98431.69;;;20.51;69.26
80116;BME280;69423;47.608;19.366;2023-09-19T03:08:14;98435.75;;;20.53;68.89
80116;BME280;69423;47.608;19.366;2023-09-19T03:08:48;98421.66;;;20.51;68.65
80116;BME280;69423;47.608;19.366;2023-09-19T03:09:22;98431.69;;;20.51;68.73
80116;BME280;69423;47.608;19.366;2023-09-19T03:09:54;98437.63;;;20.48;69.24
80116;BME280;69423;47.608;19.366;2023-09-19T03:10:26;98428.69;;;20.47;69.22
80116;BME280;69423;47.608;19.366;2023-09-19T03:10:58;98432.19;;;20.48;69.09